Independence, Ca., Owens Valley School Weather observations

 Day   Time    Ave.   Ave.  Ave.  Vector  Max.   Total    Solar  
  of    of     Air    Rel.  Wind   Wind   Wind  Precip.   Rad.   
Year   Day     Temp.  Hum.  Speed  Dir.   Gust                   
2015   (PST)    F      %     mph   deg.    mph    in.     W/m2  
----------------------------------------------------------------
  56   20:00   52.4    19    1.1   282     3.1    0.00       0
  56   20:10   50.8    21    2.6   283     3.4    0.00       0
  56   20:20   50.8    20    1.1   283     3.0    0.00       0
  56   20:30   50.8    21    3.4   274     5.4    0.00       0
  56   20:40   51.2    21    1.1   285     2.8    0.00       0
  56   20:50   51.5    21    1.4   282     2.8    0.00       0
  56   21:00   51.2    21    3.0   265     4.6    0.00       0
  56   21:10   50.9    22    3.4   257     5.3    0.00       0
  56   21:20   51.4    22    3.3   253     5.4    0.00       0
  56   21:30   51.7    21    4.3   259     6.3    0.00       0
  56   21:40   52.2    20    5.4   268     7.9    0.00       0
  56   21:50   52.0    20    2.6   282     6.3    0.00       0
  56   22:00   47.3    24    0.7    82     3.8    0.00       0
  56   22:10   47.8    22    0.6   276     3.2    0.00       0
  56   22:20   48.0    22    2.1   263     3.8    0.00       0
  56   22:30   48.0    23    2.9   264     4.2    0.00       0
  56   22:40   47.6    24    1.3   220     3.1    0.00       0
  56   22:50   48.3    23    2.5   273     5.1    0.00       0
  56   23:00   50.0    21    3.9   262     5.8    0.00       0
  56   23:10   50.1    21    4.9   267     7.7    0.00       0
  56   23:20   50.5    20    3.9   282     6.3    0.00       0
  56   23:30   49.1    22    0.1   285     2.2    0.00       0
  56   23:40   47.0    23    0.0   283     0.5    0.00       0
  56   23:50   47.1    22    0.5   319     2.6    0.00       0
  57    0:00   46.6    23    0.0     0     0.0    0.00       0
  57    0:10   46.6    23    1.3   316     4.1    0.00       0
  57    0:20   47.2    22    1.5   272     4.2    0.00       0
  57    0:30   47.7    22    3.2   278     5.4    0.00       0
  57    0:40   48.4    21    1.8   274     4.6    0.00       0
  57    0:50   48.4    22    2.9   295     5.2    0.00       0
  57    1:00   48.6    22    2.1   306     3.9    0.00       0
  57    1:10   47.7    22    0.4   322     2.4    0.00       0
  57    1:20   46.5    23    0.0     9     0.8    0.00       0
  57    1:30   46.0    23    0.0     0     0.0    0.00       0
  57    1:40   45.0    26    0.0     0     0.0    0.00       0
  57    1:50   44.3    26    0.0     0     0.0    0.00       0
  57    2:00   43.0    29    0.0   185     1.1    0.00       0
  57    2:10   42.2    32    0.8   169     2.8    0.00       0
  57    2:20   42.3    32    0.0     0     0.0    0.00       0
  57    2:30   42.3    31    0.0     0     0.0    0.00       0
  57    2:40   43.6    29    0.0     0     0.0    0.00       0
  57    2:50   43.1    31    0.8   266     3.0    0.00       0
  57    3:00   42.0    32    2.9   246     4.1    0.00       0
  57    3:10   42.0    32    2.5   242     3.5    0.00       0
  57    3:20   42.1    32    2.4   243     3.9    0.00       0
  57    3:30   41.7    32    2.5   234     4.0    0.00       0
  57    3:40   41.5    34    3.8   247     5.1    0.00       0
  57    3:50   42.2    32    3.7   260     5.4    0.00       0
  57    4:00   41.4    32    3.4   338     5.6    0.00       0
  57    4:10   37.4    34    2.3   336     4.2    0.00       0
  57    4:20   37.6    35    1.6   245     5.9    0.00       0
  57    4:30   40.5    30    3.3   272     5.0    0.00       0
  57    4:40   42.8    27    2.9   294     6.2    0.00       0
  57    4:50   43.3    26    3.9   315     7.1    0.00       0
  57    5:00   41.8    28    2.9   307     5.7    0.00       0
  57    5:10   41.0    30    2.8   262     4.5    0.00       0
  57    5:20   40.8    32    1.9   243     3.7    0.00       0
  57    5:30   40.5    33    1.0   234     4.3    0.00       0
  57    5:40   39.8    35    0.1   254     2.1    0.00       0
  57    5:50   38.8    35    1.9   352     4.3    0.00       0
  57    6:00   38.9    34    1.0   336     3.5    0.00       2
  57    6:10   38.9    33    0.4   316     3.1    0.00       6
  57    6:20   38.8    35    0.0     0     0.0    0.00      10
  57    6:30   38.8    36    1.4   271     4.8    0.00      14
  57    6:40   41.3    31    4.1   271     7.0    0.00      79
  57    6:50   45.7    26    4.9   277     8.7    0.00     130
  57    7:00   48.5    23    3.4   305     6.3    0.00     161
  57    7:10   49.9    22    3.5   346     5.9    0.00     192
  57    7:20   48.5    25    2.6    23     6.0    0.00     224
  57    7:30   48.0    25    2.5   310     6.4    0.00     254
  57    7:40   50.2    23    2.3   274     4.6    0.00     286
  57    7:50   53.0    21    3.6   323    14.4    0.00     317
  57    8:00   54.5    19   10.6   324    22.5    0.00     347
  57    8:10   55.0    18   11.4   321    20.7    0.00     377
  57    8:20   55.8    18    9.9   318    17.1    0.00     406
  57    8:30   56.6    18    9.2   315    17.1    0.00     434
  57    8:40   58.1    17    9.4   319    18.5    0.00     461
  57    8:50   58.9    18   12.1   330    27.7    0.00     487
  57    9:00   58.9    18   13.7   334    24.5    0.00     511
  57    9:10   59.0    18   12.6   326    21.3    0.00     535
  57    9:20   59.5    18   12.8   324    25.6    0.00     557
  57    9:30   60.1    19   15.4   331    26.1    0.00     577
  57    9:40   60.7    19   13.9   330    24.5    0.00     597
  57    9:50   61.1    18   14.7   332    24.5    0.00     615
  57   10:00   61.4    18   12.5   318    22.3    0.00     632
  57   10:10   62.3    18   11.6   336    21.8    0.00     647
  57   10:20   62.9    18   10.9   331    21.1    0.00     661
  57   10:30   63.8    18   11.9   330    19.6    0.00     674
  57   10:40   63.6    18   14.3   330    23.9    0.00     685
  57   10:50   64.1    18   12.8   321    23.1    0.00     696
  57   11:00   64.5    18   11.1   327    18.9    0.00     707
  57   11:10   66.2    16    8.1   327    16.8    0.00     714
  57   11:20   65.8    17   11.6   341    24.9    0.00     716
  57   11:30   65.9    16    9.9   314    19.3    0.00     703
  57   11:40   65.6    16    9.9   333    19.0    0.00     714
  57   11:50   66.6    16    8.5   326    18.5    0.00     715
  57   12:00   66.8    16   11.4   352    20.8    0.00     703
  57   12:10   66.6    16   10.5   349    22.9    0.00     698
  57   12:20   67.4    15   10.4   349    21.0    0.00     713
  57   12:30   67.2    15   11.9   337    21.0    0.00     710
  57   12:40   67.2    15   10.4   342    20.3    0.00     650
  57   12:50   67.1    14   12.3   351    24.0    0.00     603
  57   13:00   66.7    14   13.2   341    24.8    0.00     628
  57   13:10   67.1    14   12.0   347    20.7    0.00     564
  57   13:20   67.2    14   10.9   350    19.3    0.00     503
  57   13:30   67.0    14   10.2   338    19.3    0.00     573
  57   13:40   67.6    14   10.2   351    19.6    0.00     600
  57   13:50   68.2    14   10.8   352    20.3    0.00     623
  57   14:00   67.2    14   11.0   334    20.6    0.00     408
  57   14:10   66.5    14   11.0   327    17.7    0.00     327
  57   14:20   66.6    14   10.8   342    17.7    0.00     368
  57   14:30   66.7    14   11.9   337    21.5    0.00     398
  57   14:40   67.1    14   10.8   337    19.7    0.00     405
  57   14:50   67.2    14    9.8   334    18.5    0.00     384
  57   15:00   67.2    14   10.2   327    18.7    0.00     391
  57   15:10   67.2    14   11.2   340    19.3    0.00     364
  57   15:20   67.1    14   10.2   333    19.0    0.00     343
  57   15:30   66.7    14   12.0   324    25.3    0.00     287
  57   15:40   66.2    14   11.3   327    20.7    0.00     230
  57   15:50   66.1    14   12.3   329    19.8    0.00     239
  57   16:00   65.7    14   10.4   330    19.3    0.00     206
  57   16:10   65.6    14   10.1   331    17.6    0.00     146
  57   16:20   63.8    16   10.6   331    19.1    0.00      56
  57   16:30   63.3    16    9.4   325    18.2    0.00      39
  57   16:40   62.5    16   10.4   324    19.4    0.00      18
  57   16:50   62.1    16   10.6   323    18.0    0.00      16
  57   17:00   61.6    16    8.8   325    15.8    0.00      15
  57   17:10   61.2    16    8.4   321    14.3    0.00       9
  57   17:20   60.7    17    7.8   320    14.3    0.00       4
  57   17:30   60.4    17    7.4   311    15.1    0.00       2
  57   17:40   59.7    17    6.7   314    13.0    0.00       0
  57   17:50   59.2    17    6.5   310    11.8    0.00       0
  57   18:00   58.9    17    7.9   317    15.4    0.00       0
  57   18:10   58.7    17    6.5   316    12.6    0.00       0
  57   18:20   58.3    17    6.8   315    12.7    0.00       0
  57   18:30   58.1    17    5.7   304    10.9    0.00       0
  57   18:40   57.7    17    5.4   313    10.7    0.00       0
  57   18:50   57.2    17    5.9   306    11.5    0.00       0
  57   19:00   56.6    18    6.0   297    10.1    0.00       0
  57   19:10   56.3    18    6.3   301    13.1    0.00       0
  57   19:20   56.1    18    5.5   309    11.3    0.00       0
  57   19:30   55.8    18    5.8   296    10.6    0.00       0
  57   19:40   55.7    18    5.8   304    11.7    0.00       0
  57   19:50   55.2    19    5.2   309    11.1    0.00       0

Return to Independence, Ca. graphs page.


Western Regional Climate Center,wrcc@dri.edu